createdAt,value
2022-09-30T00:02:18.820Z,6.93
2022-09-30T00:06:20.864Z,6.80
2022-09-30T00:10:22.614Z,6.93
2022-09-30T00:14:24.414Z,7.25
2022-09-30T00:18:27.196Z,7.05
2022-09-30T00:22:28.587Z,6.50
2022-09-30T00:26:30.054Z,7.60
2022-09-30T00:30:31.453Z,7.38
2022-09-30T00:34:32.956Z,6.47
2022-09-30T00:38:34.365Z,7.05
2022-09-30T00:42:35.777Z,7.82
2022-09-30T00:46:44.277Z,7.20
2022-09-30T00:50:55.554Z,6.60
2022-09-30T00:54:59.350Z,6.78
2022-09-30T00:59:06.854Z,7.65
2022-09-30T01:03:08.331Z,7.20
2022-09-30T01:07:10.810Z,7.22
2022-09-30T01:11:12.260Z,7.00
2022-09-30T01:15:13.744Z,8.35
2022-09-30T01:19:45.628Z,7.85
2022-09-30T01:23:57.369Z,7.40
2022-09-30T01:28:04.715Z,7.45
2022-09-30T01:32:18.126Z,6.63
2022-09-30T01:36:38.281Z,6.88
2022-09-30T01:40:45.527Z,5.72
2022-09-30T01:45:03.031Z,6.65
2022-09-30T01:49:34.261Z,6.90
2022-09-30T01:53:44.242Z,5.85
2022-09-30T02:01:54.113Z,6.18
2022-09-30T02:06:02.356Z,6.55
2022-09-30T02:10:14.227Z,7.65
2022-09-30T02:14:41.501Z,6.80
2022-09-30T02:18:47.375Z,7.60
2022-09-30T02:22:52.273Z,7.13
2022-09-30T02:26:56.963Z,6.63
2022-09-30T02:31:02.108Z,7.65
2022-09-30T02:35:12.081Z,7.30
2022-09-30T02:43:31.452Z,7.35
2022-09-30T02:48:05.007Z,7.70
2022-09-30T02:52:29.974Z,7.18
2022-09-30T02:56:59.593Z,7.25
2022-09-30T03:01:01.065Z,7.95
2022-09-30T03:05:03.452Z,7.63
2022-09-30T03:09:05.170Z,7.93
2022-09-30T03:13:34.484Z,8.32
2022-09-30T03:18:02.101Z,7.53
2022-09-30T03:22:06.423Z,7.90
2022-09-30T03:26:16.569Z,7.32
2022-09-30T03:30:24.452Z,8.90
2022-09-30T03:34:42.671Z,8.40
2022-09-30T03:38:53.415Z,7.28
2022-09-30T03:43:06.019Z,7.25
2022-09-30T03:47:11.113Z,7.28
2022-09-30T03:51:13.496Z,7.57
2022-09-30T03:55:15.581Z,7.55
2022-09-30T03:59:26.123Z,7.65
2022-09-30T04:03:28.460Z,7.35
2022-09-30T04:07:29.987Z,7.43
2022-09-30T04:11:31.370Z,6.97
2022-09-30T04:15:32.713Z,8.00
2022-09-30T04:19:40.133Z,7.35
2022-09-30T04:23:42.595Z,7.90
2022-09-30T04:27:43.976Z,7.68
2022-09-30T04:31:45.394Z,8.15
2022-09-30T04:35:46.757Z,6.72
2022-09-30T04:39:48.148Z,7.63
2022-09-30T04:43:49.569Z,7.78
2022-09-30T04:47:50.940Z,7.22
2022-09-30T04:51:52.275Z,7.72
2022-09-30T04:55:59.739Z,7.93
2022-09-30T05:00:01.987Z,7.68
2022-09-30T05:04:03.475Z,8.05
2022-09-30T05:08:05.487Z,8.07
2022-09-30T05:12:07.160Z,7.35
2022-09-30T05:16:09.994Z,7.53
2022-09-30T05:20:11.512Z,7.95
2022-09-30T05:24:13.581Z,7.82
2022-09-30T05:28:14.993Z,8.23
2022-09-30T05:32:16.638Z,7.22
2022-09-30T05:36:18.231Z,7.32
2022-09-30T05:40:19.689Z,8.40
2022-09-30T05:44:21.439Z,7.22
2022-09-30T05:48:24.099Z,7.15
2022-09-30T05:52:25.971Z,7.70
2022-09-30T05:56:27.367Z,8.60
2022-09-30T06:00:29.142Z,9.18
2022-09-30T06:04:30.830Z,10.25
2022-09-30T06:08:32.263Z,11.27
2022-09-30T06:12:36.161Z,12.40
2022-09-30T06:16:37.585Z,11.38
2022-09-30T06:20:39.093Z,9.18
2022-09-30T06:24:41.614Z,8.68
2022-09-30T06:28:44.675Z,10.48
2022-09-30T06:32:46.107Z,11.05
2022-09-30T06:36:47.462Z,10.40
2022-09-30T06:40:50.117Z,10.70
2022-09-30T06:44:53.451Z,11.65
2022-09-30T06:49:10.705Z,11.05
2022-09-30T06:53:14.826Z,8.83
2022-09-30T06:57:16.669Z,9.20
2022-09-30T07:01:18.150Z,7.93
2022-09-30T07:05:20.062Z,8.02
2022-09-30T07:09:21.493Z,7.75
2022-09-30T07:13:23.098Z,7.78
2022-09-30T07:17:24.498Z,7.43
2022-09-30T07:21:25.946Z,8.00
2022-09-30T07:25:27.479Z,7.15
2022-09-30T07:29:36.664Z,8.48
2022-09-30T07:33:53.720Z,7.90
2022-09-30T07:37:55.084Z,8.20
2022-09-30T07:41:56.658Z,8.30
2022-09-30T07:45:58.575Z,8.32
2022-09-30T07:50:00.443Z,8.52
2022-09-30T07:54:09.303Z,8.23
2022-09-30T07:58:10.991Z,8.70
2022-09-30T08:02:17.893Z,8.38
2022-09-30T08:06:21.437Z,8.75
2022-09-30T08:10:22.861Z,8.85
2022-09-30T08:14:26.664Z,9.80
2022-09-30T08:18:28.726Z,8.13
2022-09-30T08:22:30.111Z,9.20
2022-09-30T08:26:31.665Z,9.23
2022-09-30T08:30:37.581Z,8.68
2022-09-30T08:34:39.041Z,8.30
2022-09-30T08:38:40.981Z,8.77
2022-09-30T08:43:21.245Z,8.23
2022-09-30T08:47:37.979Z,8.77
2022-09-30T08:51:45.236Z,8.00
2022-09-30T08:55:46.795Z,7.43
2022-09-30T08:59:52.768Z,8.82
2022-09-30T09:03:55.220Z,8.65
2022-09-30T09:08:19.148Z,8.65
2022-09-30T09:12:41.354Z,8.23
2022-09-30T09:16:55.300Z,8.65
2022-09-30T09:20:59.805Z,7.25
2022-09-30T09:25:02.794Z,7.68
2022-09-30T09:29:43.402Z,7.18
2022-09-30T09:33:45.224Z,8.05
2022-09-30T09:38:18.629Z,7.13
2022-09-30T09:42:31.504Z,7.30
2022-09-30T09:46:41.790Z,7.07
2022-09-30T09:51:03.885Z,7.65
2022-09-30T09:55:05.832Z,6.85
2022-09-30T09:59:18.025Z,7.15
2022-09-30T10:03:25.147Z,6.72
2022-09-30T10:07:29.001Z,5.90
2022-09-30T10:11:30.978Z,6.40
2022-09-30T10:15:33.524Z,5.57
2022-09-30T10:19:35.251Z,6.07
2022-09-30T10:23:40.759Z,5.70
2022-09-30T10:27:59.271Z,6.00
2022-09-30T10:32:08.332Z,4.72
2022-09-30T10:36:15.266Z,5.45
2022-09-30T10:40:18.791Z,5.43
2022-09-30T10:44:23.501Z,4.65
2022-09-30T10:48:27.413Z,4.38
2022-09-30T10:52:32.318Z,3.90
2022-09-30T10:56:41.065Z,3.80
2022-09-30T11:00:43.842Z,3.55
2022-09-30T11:04:52.652Z,3.17
2022-09-30T11:09:00.638Z,2.88
2022-09-30T11:13:02.014Z,2.50
2022-09-30T11:17:28.690Z,2.50
2022-09-30T11:21:46.070Z,2.35
2022-09-30T11:25:50.194Z,3.00
2022-09-30T11:30:00.722Z,2.30
2022-09-30T11:34:20.986Z,2.67
2022-09-30T11:39:02.043Z,2.58
2022-09-30T11:43:08.452Z,2.22
2022-09-30T11:47:31.238Z,2.63
2022-09-30T11:51:42.160Z,1.85
2022-09-30T11:55:59.392Z,2.47
2022-09-30T12:00:28.496Z,2.22
2022-09-30T12:04:39.411Z,2.75
2022-09-30T12:08:51.760Z,2.50
2022-09-30T12:12:58.845Z,2.72
2022-09-30T12:17:03.429Z,2.10
2022-09-30T12:21:23.225Z,2.20
2022-09-30T12:30:01.092Z,2.00
2022-09-30T12:34:08.308Z,1.88
2022-09-30T12:38:27.946Z,1.52
2022-09-30T12:46:58.509Z,1.90
2022-09-30T12:51:00.855Z,1.77
2022-09-30T12:55:08.945Z,1.90
2022-09-30T12:59:15.235Z,1.67
2022-09-30T13:03:18.361Z,1.45
2022-09-30T13:07:23.256Z,1.75
2022-09-30T13:12:03.218Z,1.23
2022-09-30T13:16:06.490Z,1.08
2022-09-30T13:20:47.148Z,1.23
2022-09-30T13:29:02.644Z,5.38
2022-09-30T13:33:03.993Z,1.52
2022-09-30T13:37:05.847Z,1.30
2022-09-30T13:41:25.968Z,1.50
2022-09-30T13:45:39.376Z,1.20
2022-09-30T13:49:49.266Z,1.05
2022-09-30T13:53:55.502Z,1.23
2022-09-30T13:58:09.006Z,1.30
2022-09-30T14:02:31.436Z,1.35
2022-09-30T14:07:16.343Z,1.30
2022-09-30T14:11:54.286Z,1.30
2022-09-30T14:16:06.301Z,1.25
2022-09-30T14:20:38.881Z,1.30
2022-09-30T14:24:40.832Z,1.45
2022-09-30T14:28:50.433Z,1.30
2022-09-30T14:32:58.394Z,1.60
2022-09-30T14:36:59.825Z,1.30
2022-09-30T14:41:08.226Z,1.48
2022-09-30T14:45:14.099Z,2.90
2022-09-30T14:49:34.230Z,1.30
2022-09-30T14:53:39.980Z,1.42
2022-09-30T14:57:43.734Z,1.38
2022-09-30T15:01:51.337Z,1.48
2022-09-30T15:05:53.390Z,1.33
2022-09-30T15:10:01.745Z,1.90
2022-09-30T15:14:07.605Z,2.00
2022-09-30T15:18:27.440Z,1.40
2022-09-30T15:26:32.209Z,1.60
2022-09-30T15:30:33.776Z,1.73
2022-09-30T15:34:35.214Z,2.17
2022-09-30T15:38:38.133Z,1.80
2022-09-30T15:42:45.302Z,1.52
2022-09-30T15:47:03.110Z,1.63
2022-09-30T15:51:42.345Z,1.73
2022-09-30T15:55:46.137Z,1.77
2022-09-30T15:59:59.937Z,2.10
2022-09-30T16:04:16.467Z,5.40
2022-09-30T16:08:24.573Z,1.90
2022-09-30T16:12:31.379Z,1.50
2022-09-30T16:16:35.702Z,2.08
2022-09-30T16:20:37.433Z,3.10
2022-09-30T16:24:42.317Z,5.57
2022-09-30T16:28:44.052Z,2.90
2022-09-30T16:32:49.435Z,2.20
2022-09-30T16:36:52.607Z,2.63
2022-09-30T16:40:54.014Z,2.67
2022-09-30T16:44:55.906Z,6.47
2022-09-30T16:48:57.299Z,5.07
2022-09-30T16:52:58.791Z,3.38
2022-09-30T16:57:03.105Z,7.22
2022-09-30T17:01:04.666Z,3.88
2022-09-30T17:05:06.709Z,5.68
2022-09-30T17:09:08.113Z,5.15
2022-09-30T17:13:09.936Z,5.15
2022-09-30T17:17:13.738Z,5.80
2022-09-30T17:21:20.035Z,3.17
2022-09-30T17:25:21.539Z,3.80
2022-09-30T17:29:41.761Z,3.97
2022-09-30T17:33:43.687Z,4.75
2022-09-30T17:37:46.523Z,5.95
2022-09-30T17:42:06.656Z,5.63
2022-09-30T17:46:08.225Z,5.45
2022-09-30T17:50:10.115Z,4.68
2022-09-30T17:54:11.655Z,4.68
2022-09-30T17:58:14.007Z,3.83
2022-09-30T18:02:17.590Z,4.57
2022-09-30T18:06:22.955Z,5.53
2022-09-30T18:10:25.358Z,4.45
2022-09-30T18:14:35.192Z,5.18
2022-09-30T18:18:36.643Z,4.43
2022-09-30T18:22:38.221Z,5.40
2022-09-30T18:26:39.724Z,5.80
2022-09-30T18:30:41.259Z,6.05
2022-09-30T18:34:42.689Z,6.20
2022-09-30T18:38:44.054Z,7.07
2022-09-30T18:42:46.097Z,6.50
2022-09-30T18:46:47.509Z,6.85
2022-09-30T18:50:51.271Z,7.07
2022-09-30T18:54:52.749Z,6.30
2022-09-30T18:58:54.297Z,6.13
2022-09-30T19:02:56.804Z,6.15
2022-09-30T19:06:58.227Z,5.78
2022-09-30T19:11:00.077Z,5.50
2022-09-30T19:15:17.243Z,5.15
2022-09-30T19:19:20.416Z,6.30
2022-09-30T19:23:22.083Z,7.07
2022-09-30T19:27:26.151Z,6.75
2022-09-30T19:31:28.368Z,5.10
2022-09-30T19:35:38.730Z,5.80
2022-09-30T19:39:45.914Z,6.57
2022-09-30T19:43:50.859Z,6.00
2022-09-30T19:47:52.298Z,6.25
2022-09-30T19:51:53.718Z,6.57
2022-09-30T19:56:02.806Z,6.10
2022-09-30T20:00:05.562Z,7.83
2022-09-30T20:04:08.139Z,7.22
2022-09-30T20:08:09.613Z,8.95
2022-09-30T20:12:15.207Z,7.45
2022-09-30T20:16:18.362Z,10.30
2022-09-30T20:20:45.949Z,13.23
2022-09-30T20:24:47.695Z,10.05
2022-09-30T20:28:49.050Z,9.35
2022-09-30T20:32:50.414Z,8.50
2022-09-30T20:36:51.814Z,8.20
2022-09-30T20:41:01.981Z,7.95
2022-09-30T20:45:06.090Z,7.63
2022-09-30T20:49:07.724Z,7.93
2022-09-30T20:53:11.512Z,8.98
2022-09-30T20:57:12.905Z,10.50
2022-09-30T21:01:19.950Z,8.75
2022-09-30T21:05:21.464Z,8.30
2022-09-30T21:09:22.887Z,8.57
2022-09-30T21:13:24.517Z,8.32
2022-09-30T21:17:25.892Z,8.80
2022-09-30T21:21:27.329Z,9.45
2022-09-30T21:25:32.422Z,8.35
2022-09-30T21:29:33.827Z,7.65
2022-09-30T21:33:36.025Z,8.88
2022-09-30T21:37:37.794Z,10.32
2022-09-30T21:41:40.648Z,10.38
2022-09-30T21:45:42.447Z,9.57
2022-09-30T21:49:44.001Z,8.43
2022-09-30T21:53:46.920Z,7.97
2022-09-30T21:57:48.383Z,9.95
2022-09-30T22:01:50.239Z,8.80
2022-09-30T22:05:53.294Z,8.60
2022-09-30T22:09:54.769Z,9.32
2022-09-30T22:13:58.123Z,9.15
2022-09-30T22:17:59.586Z,8.82
2022-09-30T22:22:01.657Z,9.23
2022-09-30T22:26:22.390Z,8.93
2022-09-30T22:30:23.834Z,8.65
2022-09-30T22:34:43.502Z,8.80
2022-09-30T22:38:46.081Z,8.98
2022-09-30T22:42:48.004Z,8.73
2022-09-30T22:46:50.593Z,8.88
2022-09-30T22:50:51.990Z,8.50
2022-09-30T22:54:53.887Z,8.60
2022-09-30T22:58:55.425Z,8.85
2022-09-30T23:02:56.828Z,8.95
2022-09-30T23:06:58.347Z,9.13
2022-09-30T23:11:03.141Z,8.57
2022-09-30T23:15:05.110Z,10.23
2022-09-30T23:19:06.573Z,9.70
2022-09-30T23:23:07.984Z,9.27
2022-09-30T23:27:09.371Z,9.05
2022-09-30T23:31:15.910Z,8.60
2022-09-30T23:35:17.385Z,8.90
2022-09-30T23:39:20.803Z,8.75
2022-09-30T23:43:22.302Z,9.32
2022-09-30T23:47:23.715Z,9.45
2022-09-30T23:51:25.154Z,9.65
2022-09-30T23:55:27.945Z,9.20
2022-09-30T23:59:30.183Z,8.60
